Air Quality Table

TIMESTAMP NO2 O3 PM2.5 TEMP HUM AIRPRES WS WD NO
2022-11-26 01:00 19.2 µg/m3 50.92 µg/m3 4 µg/m3 16.48 °C N/A 1,008.47 mbar 0.68 m/s 282.13 Deg 1.44 µg/m3
2022-11-25 01:00 N/A 68.54 µg/m3 3.11 µg/m3 18.23 °C N/A 1,003.42 mbar 1.59 m/s 323.39 Deg N/A
2022-11-24 01:00 N/A 74.43 µg/m3 1.37 µg/m3 17.43 °C N/A 998.83 mbar 2.22 m/s 312.23 Deg N/A
2022-11-23 01:00 N/A 83.39 µg/m3 4 µg/m3 17.68 °C N/A 998.85 mbar 3.78 m/s 290.22 Deg N/A
2022-11-22 01:00 N/A 79.68 µg/m3 1.01 µg/m3 17.01 °C N/A 1,004.68 mbar 1.8 m/s 313.37 Deg N/A
2022-11-21 01:00 N/A 72.91 µg/m3 4.21 µg/m3 16.81 °C N/A 998.82 mbar 1.8 m/s 301.67 Deg N/A
2022-11-20 01:00 N/A 66.17 µg/m3 10.62 µg/m3 21.54 °C N/A 997.90 mbar 2.15 m/s 239.57 Deg N/A
2022-11-19 01:00 8.75 µg/m3 63.16 µg/m3 5.24 µg/m3 21.2 °C N/A 998.89 mbar 1.88 m/s 285.19 Deg 0.73 µg/m3
2022-11-18 01:00 15.01 µg/m3 58.78 µg/m3 6.28 µg/m3 19.6 °C N/A 997.73 mbar 1.12 m/s 300.05 Deg 3.07 µg/m3
2022-11-17 01:00 13.56 µg/m3 61.67 µg/m3 7.64 µg/m3 20.6 °C N/A 999.71 mbar 1.36 m/s 256.7 Deg 0.92 µg/m3
2022-11-16 01:00 25.57 µg/m3 42.89 µg/m3 8.1 µg/m3 19.31 °C N/A 1,007.55 mbar 0.92 m/s 267.49 Deg 10.06 µg/m3
2022-11-15 01:00 28.51 µg/m3 34.66 µg/m3 6.54 µg/m3 18.38 °C N/A 1,010.19 mbar 0.81 m/s 239.16 Deg 6.4 µg/m3
2022-11-14 01:00 19.85 µg/m3 47.96 µg/m3 4.29 µg/m3 18.29 °C N/A 1,008.96 mbar 0.69 m/s 231.68 Deg 2.77 µg/m3
2022-11-13 01:00 18.22 µg/m3 56.8 µg/m3 99.47 µg/m3 18.19 °C N/A 1,011.09 mbar 0.89 m/s 234.73 Deg 3.14 µg/m3
2022-11-12 01:00 19.96 µg/m3 54.63 µg/m3 4.74 µg/m3 18.88 °C N/A 1,014.39 mbar 1.17 m/s 230.2 Deg 6.77 µg/m3
2022-11-11 01:00 38.13 µg/m3 27.27 µg/m3 8.92 µg/m3 18.21 °C N/A 1,010.65 mbar 0.77 m/s 238.59 Deg 13.3 µg/m3
2022-11-10 01:00 35.88 µg/m3 37.83 µg/m3 7.57 µg/m3 18.06 °C N/A 1,009.25 mbar 0.87 m/s 249.58 Deg 9.83 µg/m3
2022-11-09 01:00 28.43 µg/m3 40.11 µg/m3 6.09 µg/m3 18.25 °C N/A 1,009.52 mbar 0.64 m/s 293.46 Deg 13.08 µg/m3
2022-11-08 01:00 10.98 µg/m3 58.81 µg/m3 2.27 µg/m3 18.91 °C N/A 1,008.53 mbar 0.83 m/s 272.05 Deg 0.45 µg/m3
2022-11-07 01:00 2.1 µg/m3 71.53 µg/m3 1.97 µg/m3 19.13 °C N/A 1,001.15 mbar 2.06 m/s 321.1 Deg 0.13 µg/m3
2022-11-06 01:00 1.69 µg/m3 75.69 µg/m3 0.68 µg/m3 17.4 °C N/A 996.09 mbar 1.93 m/s 308.55 Deg 0.31 µg/m3
2022-11-05 01:00 5.39 µg/m3 77.2 µg/m3 7.43 µg/m3 22.33 °C N/A 1,002.48 mbar 2.32 m/s 251.09 Deg 0.95 µg/m3
2022-11-04 01:00 14.63 µg/m3 50.54 µg/m3 8.64 µg/m3 20.58 °C N/A 1,009.39 mbar 0.81 m/s 297.74 Deg 6.28 µg/m3
2022-11-03 01:00 10.05 µg/m3 57.46 µg/m3 8.24 µg/m3 20.87 °C N/A 1,011.19 mbar 0.73 m/s 286.62 Deg 2.16 µg/m3
2022-11-02 01:00 7.08 µg/m3 71.64 µg/m3 8.41 µg/m3 21.19 °C N/A 1,011.12 mbar 1.13 m/s 231 Deg 0.35 µg/m3
2022-11-01 01:00 11.82 µg/m3 69.84 µg/m3 9.66 µg/m3 20.92 °C N/A 1,009.79 mbar 0.95 m/s 198.7 Deg 1.42 µg/m3
2022-10-31 01:00 6.03 µg/m3 81.64 µg/m3 9.07 µg/m3 21.06 °C N/A 1,009.41 mbar 1.04 m/s 182.03 Deg 0.14 µg/m3
2022-10-30 01:00 7.05 µg/m3 78.16 µg/m3 9.58 µg/m3 21.32 °C N/A 1,010.66 mbar 1.54 m/s 202.81 Deg 0.52 µg/m3
2022-10-29 01:00 N/A 48.82 µg/m3 15.19 µg/m3 21.33 °C N/A 1,012.50 mbar 1 m/s 200.49 Deg 9.5 µg/m3
2022-10-28 01:00 32.17 µg/m3 35.99 µg/m3 20.53 µg/m3 22.47 °C N/A 1,012.45 mbar 0.61 m/s 227.85 Deg 17.59 µg/m3

It is to be noted that the data is provisional and subject to quality assurance procedures. For validated data kindly refer your request to contact.air@era.org.mt